sensor_id;sensor_type;location;lat;lon;timestamp;temperature;humidity
9907;DHT22;4992;51.628;6.664;2022-12-29T00:02:20;11.20;99.90
9907;DHT22;4992;51.628;6.664;2022-12-29T00:04:45;11.30;99.90
9907;DHT22;4992;51.628;6.664;2022-12-29T00:07:11;11.20;99.90
9907;DHT22;4992;51.628;6.664;2022-12-29T00:09:37;11.20;99.90
9907;DHT22;4992;51.628;6.664;2022-12-29T00:12:03;11.10;99.90
9907;DHT22;4992;51.628;6.664;2022-12-29T00:14:29;11.10;99.90
9907;DHT22;4992;51.628;6.664;2022-12-29T00:17:14;11.10;99.90
9907;DHT22;4992;51.628;6.664;2022-12-29T00:19:40;11.00;99.90
9907;DHT22;4992;51.628;6.664;2022-12-29T00:22:24;10.90;99.90
9907;DHT22;4992;51.628;6.664;2022-12-29T00:25:10;10.90;99.90
9907;DHT22;4992;51.628;6.664;2022-12-29T00:27:54;10.80;99.90
9907;DHT22;4992;51.628;6.664;2022-12-29T00:30:37;10.70;99.90
9907;DHT22;4992;51.628;6.664;2022-12-29T00:33:25;10.60;99.90
9907;DHT22;4992;51.628;6.664;2022-12-29T00:36:30;10.60;99.90
9907;DHT22;4992;51.628;6.664;2022-12-29T00:39:00;10.50;99.90
9907;DHT22;4992;51.628;6.664;2022-12-29T00:41:45;10.50;99.90
9907;DHT22;4992;51.628;6.664;2022-12-29T00:44:29;10.50;99.90
9907;DHT22;4992;51.628;6.664;2022-12-29T00:46:55;10.50;99.90
9907;DHT22;4992;51.628;6.664;2022-12-29T00:49:20;10.50;99.90
9907;DHT22;4992;51.628;6.664;2022-12-29T00:52:01;10.50;99.90
9907;DHT22;4992;51.628;6.664;2022-12-29T00:54:28;10.50;99.90
9907;DHT22;4992;51.628;6.664;2022-12-29T00:56:54;10.50;99.90
9907;DHT22;4992;51.628;6.664;2022-12-29T00:59:20;10.60;99.90
9907;DHT22;4992;51.628;6.664;2022-12-29T01:01:47;10.60;99.90
9907;DHT22;4992;51.628;6.664;2022-12-29T01:04:13;10.60;99.90
9907;DHT22;4992;51.628;6.664;2022-12-29T01:06:40;10.50;99.90
9907;DHT22;4992;51.628;6.664;2022-12-29T01:09:07;10.50;99.90
9907;DHT22;4992;51.628;6.664;2022-12-29T01:11:52;10.60;99.90
9907;DHT22;4992;51.628;6.664;2022-12-29T01:14:18;10.60;99.90
9907;DHT22;4992;51.628;6.664;2022-12-29T01:16:44;10.60;99.90
9907;DHT22;4992;51.628;6.664;2022-12-29T01:19:10;10.60;99.90
9907;DHT22;4992;51.628;6.664;2022-12-29T01:21:36;10.70;99.90
9907;DHT22;4992;51.628;6.664;2022-12-29T01:24:01;10.60;99.90
9907;DHT22;4992;51.628;6.664;2022-12-29T01:26:27;10.60;99.90
9907;DHT22;4992;51.628;6.664;2022-12-29T01:28:52;10.60;99.90
9907;DHT22;4992;51.628;6.664;2022-12-29T01:31:18;10.70;99.90
9907;DHT22;4992;51.628;6.664;2022-12-29T01:33:44;10.70;99.90
9907;DHT22;4992;51.628;6.664;2022-12-29T01:36:15;10.70;99.90
9907;DHT22;4992;51.628;6.664;2022-12-29T01:38:41;10.70;99.90
9907;DHT22;4992;51.628;6.664;2022-12-29T01:41:09;10.70;99.90
9907;DHT22;4992;51.628;6.664;2022-12-29T01:43:58;10.80;99.90
9907;DHT22;4992;51.628;6.664;2022-12-29T01:46:39;10.80;99.90
9907;DHT22;4992;51.628;6.664;2022-12-29T01:49:15;10.80;99.90
9907;DHT22;4992;51.628;6.664;2022-12-29T01:51:48;10.90;99.90
9907;DHT22;4992;51.628;6.664;2022-12-29T01:54:28;10.90;99.90
9907;DHT22;4992;51.628;6.664;2022-12-29T01:57:00;10.90;99.90
9907;DHT22;4992;51.628;6.664;2022-12-29T01:59:31;10.90;99.90
9907;DHT22;4992;51.628;6.664;2022-12-29T02:01:58;11.00;99.90
9907;DHT22;4992;51.628;6.664;2022-12-29T02:04:24;11.00;99.90
9907;DHT22;4992;51.628;6.664;2022-12-29T02:06:55;11.00;99.90
9907;DHT22;4992;51.628;6.664;2022-12-29T02:09:23;11.00;99.90
9907;DHT22;4992;51.628;6.664;2022-12-29T02:11:49;11.00;99.90
9907;DHT22;4992;51.628;6.664;2022-12-29T02:14:15;11.00;99.90
9907;DHT22;4992;51.628;6.664;2022-12-29T02:31:17;11.20;99.90
9907;DHT22;4992;51.628;6.664;2022-12-29T02:34:04;11.30;99.90
9907;DHT22;4992;51.628;6.664;2022-12-29T02:37:10;11.30;99.90
9907;DHT22;4992;51.628;6.664;2022-12-29T02:39:50;11.30;99.90
9907;DHT22;4992;51.628;6.664;2022-12-29T02:42:21;11.40;99.90
9907;DHT22;4992;51.628;6.664;2022-12-29T02:44:59;11.40;99.90
9907;DHT22;4992;51.628;6.664;2022-12-29T02:47:30;11.40;99.90
9907;DHT22;4992;51.628;6.664;2022-12-29T02:50:02;11.50;99.90
9907;DHT22;4992;51.628;6.664;2022-12-29T02:52:40;11.50;99.90
9907;DHT22;4992;51.628;6.664;2022-12-29T02:55:11;11.50;99.90
9907;DHT22;4992;51.628;6.664;2022-12-29T02:57:37;11.50;99.90
9907;DHT22;4992;51.628;6.664;2022-12-29T03:00:09;11.50;99.90
9907;DHT22;4992;51.628;6.664;2022-12-29T03:03:03;11.60;99.90
9907;DHT22;4992;51.628;6.664;2022-12-29T03:05:39;11.60;99.90
9907;DHT22;4992;51.628;6.664;2022-12-29T03:08:35;11.60;99.90
9907;DHT22;4992;51.628;6.664;2022-12-29T03:11:07;11.60;99.90
9907;DHT22;4992;51.628;6.664;2022-12-29T03:14:27;11.60;99.90
9907;DHT22;4992;51.628;6.664;2022-12-29T03:17:32;11.60;99.90
9907;DHT22;4992;51.628;6.664;2022-12-29T03:20:06;11.60;99.90
9907;DHT22;4992;51.628;6.664;2022-12-29T03:22:36;11.60;99.90
9907;DHT22;4992;51.628;6.664;2022-12-29T03:25:10;11.60;99.90
9907;DHT22;4992;51.628;6.664;2022-12-29T03:27:42;11.50;99.90
9907;DHT22;4992;51.628;6.664;2022-12-29T03:30:09;11.50;99.90
9907;DHT22;4992;51.628;6.664;2022-12-29T03:32:42;11.50;99.90
9907;DHT22;4992;51.628;6.664;2022-12-29T03:35:13;11.50;99.90
9907;DHT22;4992;51.628;6.664;2022-12-29T03:37:44;11.50;99.90
9907;DHT22;4992;51.628;6.664;2022-12-29T03:40:11;11.50;99.90
9907;DHT22;4992;51.628;6.664;2022-12-29T03:42:37;11.40;99.90
9907;DHT22;4992;51.628;6.664;2022-12-29T03:45:04;11.30;99.90
9907;DHT22;4992;51.628;6.664;2022-12-29T03:47:31;11.20;99.90
9907;DHT22;4992;51.628;6.664;2022-12-29T03:49:57;11.10;99.90
9907;DHT22;4992;51.628;6.664;2022-12-29T03:52:22;11.00;99.90
9907;DHT22;4992;51.628;6.664;2022-12-29T03:54:48;10.90;99.90
9907;DHT22;4992;51.628;6.664;2022-12-29T03:57:13;10.70;99.90
9907;DHT22;4992;51.628;6.664;2022-12-29T03:59:39;10.60;99.90
9907;DHT22;4992;51.628;6.664;2022-12-29T04:02:04;10.40;99.90
9907;DHT22;4992;51.628;6.664;2022-12-29T04:04:30;10.20;99.90
9907;DHT22;4992;51.628;6.664;2022-12-29T04:06:55;10.10;99.90
9907;DHT22;4992;51.628;6.664;2022-12-29T04:09:21;10.00;99.90
9907;DHT22;4992;51.628;6.664;2022-12-29T04:11:46;9.90;99.90
9907;DHT22;4992;51.628;6.664;2022-12-29T04:14:12;9.80;99.90
9907;DHT22;4992;51.628;6.664;2022-12-29T04:16:37;9.80;99.90
9907;DHT22;4992;51.628;6.664;2022-12-29T04:19:05;9.70;99.90
9907;DHT22;4992;51.628;6.664;2022-12-29T04:21:30;9.70;99.90
9907;DHT22;4992;51.628;6.664;2022-12-29T04:23:56;9.70;99.90
9907;DHT22;4992;51.628;6.664;2022-12-29T04:26:21;9.70;99.90
9907;DHT22;4992;51.628;6.664;2022-12-29T04:28:47;9.70;99.90
9907;DHT22;4992;51.628;6.664;2022-12-29T04:31:12;9.60;99.90
9907;DHT22;4992;51.628;6.664;2022-12-29T04:33:38;9.70;99.90
9907;DHT22;4992;51.628;6.664;2022-12-29T04:36:04;9.70;99.90
9907;DHT22;4992;51.628;6.664;2022-12-29T04:38:29;9.60;99.90
9907;DHT22;4992;51.628;6.664;2022-12-29T04:40:55;9.60;99.90
9907;DHT22;4992;51.628;6.664;2022-12-29T04:43:20;9.60;99.90
9907;DHT22;4992;51.628;6.664;2022-12-29T04:45:47;9.50;99.90
9907;DHT22;4992;51.628;6.664;2022-12-29T04:48:14;9.50;99.90
9907;DHT22;4992;51.628;6.664;2022-12-29T04:50:40;9.50;99.90
9907;DHT22;4992;51.628;6.664;2022-12-29T04:53:06;9.50;99.90
9907;DHT22;4992;51.628;6.664;2022-12-29T04:55:31;9.50;99.90
9907;DHT22;4992;51.628;6.664;2022-12-29T04:57:57;9.40;99.90
9907;DHT22;4992;51.628;6.664;2022-12-29T05:00:23;9.40;99.90
9907;DHT22;4992;51.628;6.664;2022-12-29T05:02:48;9.40;99.90
9907;DHT22;4992;51.628;6.664;2022-12-29T05:05:14;9.40;99.90
9907;DHT22;4992;51.628;6.664;2022-12-29T05:07:40;9.30;99.90
9907;DHT22;4992;51.628;6.664;2022-12-29T05:10:06;9.30;99.90
9907;DHT22;4992;51.628;6.664;2022-12-29T05:12:33;9.30;99.90
9907;DHT22;4992;51.628;6.664;2022-12-29T05:14:59;9.30;99.90
9907;DHT22;4992;51.628;6.664;2022-12-29T05:17:25;9.30;99.90
9907;DHT22;4992;51.628;6.664;2022-12-29T05:19:51;9.30;99.90
9907;DHT22;4992;51.628;6.664;2022-12-29T05:22:17;9.30;99.90
9907;DHT22;4992;51.628;6.664;2022-12-29T05:24:42;9.30;99.90
9907;DHT22;4992;51.628;6.664;2022-12-29T05:27:08;9.30;99.90
9907;DHT22;4992;51.628;6.664;2022-12-29T05:29:34;9.30;99.90
9907;DHT22;4992;51.628;6.664;2022-12-29T05:31:59;9.20;99.90
9907;DHT22;4992;51.628;6.664;2022-12-29T05:34:25;9.20;99.90
9907;DHT22;4992;51.628;6.664;2022-12-29T05:36:50;9.20;99.90
9907;DHT22;4992;51.628;6.664;2022-12-29T05:39:16;9.20;99.90
9907;DHT22;4992;51.628;6.664;2022-12-29T05:41:42;9.20;99.90
9907;DHT22;4992;51.628;6.664;2022-12-29T05:44:07;9.20;99.90
9907;DHT22;4992;51.628;6.664;2022-12-29T05:46:33;9.20;99.90
9907;DHT22;4992;51.628;6.664;2022-12-29T05:48:58;9.20;99.90
9907;DHT22;4992;51.628;6.664;2022-12-29T05:51:24;9.20;99.90
9907;DHT22;4992;51.628;6.664;2022-12-29T05:53:50;9.10;99.90
9907;DHT22;4992;51.628;6.664;2022-12-29T05:56:16;9.10;99.90
9907;DHT22;4992;51.628;6.664;2022-12-29T05:58:41;9.10;99.90
9907;DHT22;4992;51.628;6.664;2022-12-29T06:01:07;9.10;99.90
9907;DHT22;4992;51.628;6.664;2022-12-29T06:03:33;9.10;99.90
9907;DHT22;4992;51.628;6.664;2022-12-29T06:05:59;9.10;99.90
9907;DHT22;4992;51.628;6.664;2022-12-29T06:08:24;9.20;99.90
9907;DHT22;4992;51.628;6.664;2022-12-29T06:10:50;9.20;99.90
9907;DHT22;4992;51.628;6.664;2022-12-29T06:13:16;9.20;99.90
9907;DHT22;4992;51.628;6.664;2022-12-29T06:15:41;9.20;99.90
9907;DHT22;4992;51.628;6.664;2022-12-29T06:18:07;9.20;99.90
9907;DHT22;4992;51.628;6.664;2022-12-29T06:20:33;9.30;99.90
9907;DHT22;4992;51.628;6.664;2022-12-29T06:22:58;9.30;99.90
9907;DHT22;4992;51.628;6.664;2022-12-29T06:25:24;9.30;99.90
9907;DHT22;4992;51.628;6.664;2022-12-29T06:27:50;9.30;99.90
9907;DHT22;4992;51.628;6.664;2022-12-29T06:30:15;9.30;99.90
9907;DHT22;4992;51.628;6.664;2022-12-29T06:32:42;9.30;99.90
9907;DHT22;4992;51.628;6.664;2022-12-29T06:35:08;9.30;99.90
9907;DHT22;4992;51.628;6.664;2022-12-29T06:37:34;9.20;99.90
9907;DHT22;4992;51.628;6.664;2022-12-29T06:40:00;9.20;99.90
9907;DHT22;4992;51.628;6.664;2022-12-29T06:42:25;9.30;99.90
9907;DHT22;4992;51.628;6.664;2022-12-29T06:44:51;9.20;99.90
9907;DHT22;4992;51.628;6.664;2022-12-29T06:47:17;9.20;99.90
9907;DHT22;4992;51.628;6.664;2022-12-29T06:49:44;9.20;99.90
9907;DHT22;4992;51.628;6.664;2022-12-29T06:52:09;9.30;99.90
9907;DHT22;4992;51.628;6.664;2022-12-29T06:54:35;9.30;99.90
9907;DHT22;4992;51.628;6.664;2022-12-29T06:57:00;9.40;99.90
9907;DHT22;4992;51.628;6.664;2022-12-29T06:59:26;9.40;99.90
9907;DHT22;4992;51.628;6.664;2022-12-29T07:01:52;9.30;99.90
9907;DHT22;4992;51.628;6.664;2022-12-29T07:04:18;9.40;99.90
9907;DHT22;4992;51.628;6.664;2022-12-29T07:06:43;9.50;99.90
9907;DHT22;4992;51.628;6.664;2022-12-29T07:09:09;9.50;99.90
9907;DHT22;4992;51.628;6.664;2022-12-29T07:11:35;9.50;99.90
9907;DHT22;4992;51.628;6.664;2022-12-29T07:14:01;9.40;99.90
9907;DHT22;4992;51.628;6.664;2022-12-29T07:16:27;9.30;99.90
9907;DHT22;4992;51.628;6.664;2022-12-29T07:18:56;9.30;99.90
9907;DHT22;4992;51.628;6.664;2022-12-29T07:21:22;9.30;99.90
9907;DHT22;4992;51.628;6.664;2022-12-29T07:23:48;9.40;99.90
9907;DHT22;4992;51.628;6.664;2022-12-29T07:26:14;9.50;99.90
9907;DHT22;4992;51.628;6.664;2022-12-29T07:28:43;9.60;99.90
9907;DHT22;4992;51.628;6.664;2022-12-29T07:31:16;9.70;99.90
9907;DHT22;4992;51.628;6.664;2022-12-29T07:33:43;9.70;99.90
9907;DHT22;4992;51.628;6.664;2022-12-29T07:36:09;9.80;99.90
9907;DHT22;4992;51.628;6.664;2022-12-29T07:38:35;9.70;99.90
9907;DHT22;4992;51.628;6.664;2022-12-29T07:41:01;9.70;99.90
9907;DHT22;4992;51.628;6.664;2022-12-29T07:43:26;9.70;99.90
9907;DHT22;4992;51.628;6.664;2022-12-29T07:45:52;9.70;99.90
9907;DHT22;4992;51.628;6.664;2022-12-29T07:48:18;9.60;99.90
9907;DHT22;4992;51.628;6.664;2022-12-29T07:50:43;9.60;99.90
9907;DHT22;4992;51.628;6.664;2022-12-29T07:53:09;9.60;99.90
9907;DHT22;4992;51.628;6.664;2022-12-29T07:55:34;9.70;99.90
9907;DHT22;4992;51.628;6.664;2022-12-29T07:58:00;9.70;99.90
9907;DHT22;4992;51.628;6.664;2022-12-29T08:00:26;9.80;99.90
9907;DHT22;4992;51.628;6.664;2022-12-29T08:02:51;9.70;99.90
9907;DHT22;4992;51.628;6.664;2022-12-29T08:05:17;9.70;99.90
9907;DHT22;4992;51.628;6.664;2022-12-29T08:07:46;9.80;99.90
9907;DHT22;4992;51.628;6.664;2022-12-29T08:10:12;10.00;99.90
9907;DHT22;4992;51.628;6.664;2022-12-29T08:12:39;10.00;99.90
9907;DHT22;4992;51.628;6.664;2022-12-29T08:15:06;10.10;99.90
9907;DHT22;4992;51.628;6.664;2022-12-29T08:17:32;10.00;99.90
9907;DHT22;4992;51.628;6.664;2022-12-29T08:19:57;10.00;99.90
9907;DHT22;4992;51.628;6.664;2022-12-29T08:22:23;10.00;99.90
9907;DHT22;4992;51.628;6.664;2022-12-29T08:24:49;10.00;99.90
9907;DHT22;4992;51.628;6.664;2022-12-29T08:27:14;10.10;99.90
9907;DHT22;4992;51.628;6.664;2022-12-29T08:29:40;10.20;99.90
9907;DHT22;4992;51.628;6.664;2022-12-29T08:32:06;10.20;99.90
9907;DHT22;4992;51.628;6.664;2022-12-29T08:34:32;10.30;99.90
9907;DHT22;4992;51.628;6.664;2022-12-29T08:36:57;10.30;99.90
9907;DHT22;4992;51.628;6.664;2022-12-29T08:39:23;10.30;99.90
9907;DHT22;4992;51.628;6.664;2022-12-29T08:41:49;10.30;99.90
9907;DHT22;4992;51.628;6.664;2022-12-29T08:44:14;10.30;99.90
9907;DHT22;4992;51.628;6.664;2022-12-29T08:46:40;10.30;99.90
9907;DHT22;4992;51.628;6.664;2022-12-29T08:49:05;10.30;99.90
9907;DHT22;4992;51.628;6.664;2022-12-29T08:51:31;10.30;99.90
9907;DHT22;4992;51.628;6.664;2022-12-29T08:53:57;10.30;99.90
9907;DHT22;4992;51.628;6.664;2022-12-29T08:56:23;10.30;99.90
9907;DHT22;4992;51.628;6.664;2022-12-29T08:58:49;10.30;99.90
9907;DHT22;4992;51.628;6.664;2022-12-29T09:01:15;10.40;99.90
9907;DHT22;4992;51.628;6.664;2022-12-29T09:03:41;10.50;99.90
9907;DHT22;4992;51.628;6.664;2022-12-29T09:06:06;10.50;99.90
9907;DHT22;4992;51.628;6.664;2022-12-29T09:08:32;10.50;99.90
9907;DHT22;4992;51.628;6.664;2022-12-29T09:11:18;10.50;99.90
9907;DHT22;4992;51.628;6.664;2022-12-29T09:13:44;10.50;99.90
9907;DHT22;4992;51.628;6.664;2022-12-29T09:16:10;10.60;99.90
9907;DHT22;4992;51.628;6.664;2022-12-29T09:18:36;10.60;99.90
9907;DHT22;4992;51.628;6.664;2022-12-29T09:21:03;10.70;99.90
9907;DHT22;4992;51.628;6.664;2022-12-29T09:23:30;10.70;99.90
9907;DHT22;4992;51.628;6.664;2022-12-29T09:25:56;10.70;99.90
9907;DHT22;4992;51.628;6.664;2022-12-29T09:28:22;10.80;99.90
9907;DHT22;4992;51.628;6.664;2022-12-29T09:30:48;10.90;99.90
9907;DHT22;4992;51.628;6.664;2022-12-29T09:33:15;10.90;99.90
9907;DHT22;4992;51.628;6.664;2022-12-29T09:35:44;10.90;99.90
9907;DHT22;4992;51.628;6.664;2022-12-29T09:38:10;10.90;99.90
9907;DHT22;4992;51.628;6.664;2022-12-29T09:40:37;11.00;99.90
9907;DHT22;4992;51.628;6.664;2022-12-29T09:45:36;11.00;99.90
9907;DHT22;4992;51.628;6.664;2022-12-29T09:48:14;11.00;99.90
9907;DHT22;4992;51.628;6.664;2022-12-29T09:50:44;11.00;99.90
9907;DHT22;4992;51.628;6.664;2022-12-29T09:53:20;11.00;99.90
9907;DHT22;4992;51.628;6.664;2022-12-29T09:55:51;11.00;99.90
9907;DHT22;4992;51.628;6.664;2022-12-29T09:58:24;11.10;99.90
9907;DHT22;4992;51.628;6.664;2022-12-29T10:01:05;11.10;99.90
9907;DHT22;4992;51.628;6.664;2022-12-29T10:03:49;11.10;99.90
9907;DHT22;4992;51.628;6.664;2022-12-29T10:06:32;11.10;99.90
9907;DHT22;4992;51.628;6.664;2022-12-29T10:09:17;11.10;99.90
9907;DHT22;4992;51.628;6.664;2022-12-29T10:12:16;11.10;99.90
9907;DHT22;4992;51.628;6.664;2022-12-29T10:23:32;11.10;99.90
9907;DHT22;4992;51.628;6.664;2022-12-29T10:26:02;11.10;99.90
9907;DHT22;4992;51.628;6.664;2022-12-29T10:28:47;11.20;99.90
9907;DHT22;4992;51.628;6.664;2022-12-29T10:31:22;11.30;99.90
9907;DHT22;4992;51.628;6.664;2022-12-29T10:33:51;11.40;99.90
9907;DHT22;4992;51.628;6.664;2022-12-29T10:36:24;11.40;99.90
9907;DHT22;4992;51.628;6.664;2022-12-29T10:39:13;11.40;99.90
9907;DHT22;4992;51.628;6.664;2022-12-29T10:44:29;11.50;99.90
9907;DHT22;4992;51.628;6.664;2022-12-29T10:46:59;11.50;99.90
9907;DHT22;4992;51.628;6.664;2022-12-29T10:49:27;11.50;99.90
9907;DHT22;4992;51.628;6.664;2022-12-29T10:51:57;11.50;99.90
9907;DHT22;4992;51.628;6.664;2022-12-29T10:54:30;11.50;99.90
9907;DHT22;4992;51.628;6.664;2022-12-29T10:57:04;11.50;99.90
9907;DHT22;4992;51.628;6.664;2022-12-29T10:59:33;11.40;99.90
9907;DHT22;4992;51.628;6.664;2022-12-29T11:05:05;11.40;99.90
9907;DHT22;4992;51.628;6.664;2022-12-29T11:07:34;11.40;99.90
9907;DHT22;4992;51.628;6.664;2022-12-29T11:10:17;11.50;99.90
9907;DHT22;4992;51.628;6.664;2022-12-29T11:12:56;11.40;99.90
9907;DHT22;4992;51.628;6.664;2022-12-29T11:15:22;11.30;99.90
9907;DHT22;4992;51.628;6.664;2022-12-29T11:17:50;11.30;99.90
9907;DHT22;4992;51.628;6.664;2022-12-29T11:20:34;11.20;99.90
9907;DHT22;4992;51.628;6.664;2022-12-29T11:23:01;11.20;99.90
9907;DHT22;4992;51.628;6.664;2022-12-29T11:25:27;11.10;99.90
9907;DHT22;4992;51.628;6.664;2022-12-29T11:30:26;10.90;99.90
9907;DHT22;4992;51.628;6.664;2022-12-29T11:32:53;10.90;99.90
9907;DHT22;4992;51.628;6.664;2022-12-29T11:35:50;11.00;99.90
9907;DHT22;4992;51.628;6.664;2022-12-29T11:38:21;11.00;99.90
9907;DHT22;4992;51.628;6.664;2022-12-29T11:40:48;11.00;99.90
9907;DHT22;4992;51.628;6.664;2022-12-29T11:43:29;11.10;99.90
9907;DHT22;4992;51.628;6.664;2022-12-29T11:45:58;11.10;99.90
9907;DHT22;4992;51.628;6.664;2022-12-29T11:48:27;11.20;99.90
9907;DHT22;4992;51.628;6.664;2022-12-29T11:50:57;11.30;99.90
9907;DHT22;4992;51.628;6.664;2022-12-29T11:53:31;11.20;99.90
9907;DHT22;4992;51.628;6.664;2022-12-29T11:56:02;11.20;99.90
9907;DHT22;4992;51.628;6.664;2022-12-29T11:58:32;11.10;99.90
9907;DHT22;4992;51.628;6.664;2022-12-29T12:01:16;11.10;99.90
9907;DHT22;4992;51.628;6.664;2022-12-29T12:03:51;11.10;99.90
9907;DHT22;4992;51.628;6.664;2022-12-29T12:06:23;11.00;99.90
9907;DHT22;4992;51.628;6.664;2022-12-29T12:08:55;11.00;99.90
9907;DHT22;4992;51.628;6.664;2022-12-29T12:11:31;11.00;99.90
9907;DHT22;4992;51.628;6.664;2022-12-29T12:14:07;11.00;99.90
9907;DHT22;4992;51.628;6.664;2022-12-29T12:16:43;11.10;99.90
9907;DHT22;4992;51.628;6.664;2022-12-29T12:19:30;11.10;99.90
9907;DHT22;4992;51.628;6.664;2022-12-29T12:22:08;11.10;99.90
9907;DHT22;4992;51.628;6.664;2022-12-29T12:24:37;11.20;99.90
9907;DHT22;4992;51.628;6.664;2022-12-29T12:29:46;11.10;99.90
9907;DHT22;4992;51.628;6.664;2022-12-29T12:33:05;11.10;99.90
9907;DHT22;4992;51.628;6.664;2022-12-29T12:35:13;11.20;99.90
9907;DHT22;4992;51.628;6.664;2022-12-29T12:37:59;11.10;99.90
9907;DHT22;4992;51.628;6.664;2022-12-29T12:57:45;11.10;99.90
9907;DHT22;4992;51.628;6.664;2022-12-29T13:00:16;11.10;99.90
9907;DHT22;4992;51.628;6.664;2022-12-29T13:08:57;11.10;99.90
9907;DHT22;4992;51.628;6.664;2022-12-29T13:11:33;11.20;99.90
9907;DHT22;4992;51.628;6.664;2022-12-29T13:14:24;11.30;99.90
9907;DHT22;4992;51.628;6.664;2022-12-29T13:17:13;11.30;99.90
9907;DHT22;4992;51.628;6.664;2022-12-29T13:27:44;11.50;99.90
9907;DHT22;4992;51.628;6.664;2022-12-29T13:30:22;11.40;99.90
9907;DHT22;4992;51.628;6.664;2022-12-29T13:36:10;11.30;99.90
9907;DHT22;4992;51.628;6.664;2022-12-29T13:38:43;11.30;99.90
9907;DHT22;4992;51.628;6.664;2022-12-29T13:41:17;11.40;99.90
9907;DHT22;4992;51.628;6.664;2022-12-29T13:43:45;11.50;99.90
9907;DHT22;4992;51.628;6.664;2022-12-29T13:46:42;11.60;99.90
9907;DHT22;4992;51.628;6.664;2022-12-29T13:49:17;11.70;99.90
9907;DHT22;4992;51.628;6.664;2022-12-29T13:51:54;11.90;99.90
9907;DHT22;4992;51.628;6.664;2022-12-29T13:54:40;11.90;99.90
9907;DHT22;4992;51.628;6.664;2022-12-29T13:57:16;12.10;99.90
9907;DHT22;4992;51.628;6.664;2022-12-29T13:59:54;12.20;99.90
9907;DHT22;4992;51.628;6.664;2022-12-29T14:05:03;11.90;99.90
9907;DHT22;4992;51.628;6.664;2022-12-29T14:07:36;11.70;99.90
9907;DHT22;4992;51.628;6.664;2022-12-29T14:10:02;11.50;99.90
9907;DHT22;4992;51.628;6.664;2022-12-29T14:12:42;11.40;99.90
9907;DHT22;4992;51.628;6.664;2022-12-29T14:17:39;11.20;99.90
9907;DHT22;4992;51.628;6.664;2022-12-29T14:20:16;11.20;99.90
9907;DHT22;4992;51.628;6.664;2022-12-29T14:22:57;11.10;99.90
9907;DHT22;4992;51.628;6.664;2022-12-29T14:28:29;11.10;99.90
9907;DHT22;4992;51.628;6.664;2022-12-29T14:30:56;11.00;99.90
9907;DHT22;4992;51.628;6.664;2022-12-29T14:33:26;10.90;99.90
9907;DHT22;4992;51.628;6.664;2022-12-29T14:35:53;10.90;99.90
9907;DHT22;4992;51.628;6.664;2022-12-29T14:38:28;10.90;99.90
9907;DHT22;4992;51.628;6.664;2022-12-29T14:41:15;10.80;99.90
9907;DHT22;4992;51.628;6.664;2022-12-29T14:43:55;10.70;99.90
9907;DHT22;4992;51.628;6.664;2022-12-29T14:46:22;10.70;99.90
9907;DHT22;4992;51.628;6.664;2022-12-29T14:48:47;10.70;99.90
9907;DHT22;4992;51.628;6.664;2022-12-29T14:51:31;10.70;99.90
9907;DHT22;4992;51.628;6.664;2022-12-29T14:53:57;10.60;99.90
9907;DHT22;4992;51.628;6.664;2022-12-29T14:56:28;10.50;99.90
9907;DHT22;4992;51.628;6.664;2022-12-29T14:59:00;10.50;99.90
9907;DHT22;4992;51.628;6.664;2022-12-29T15:04:03;10.40;99.90
9907;DHT22;4992;51.628;6.664;2022-12-29T15:06:31;10.40;99.90
9907;DHT22;4992;51.628;6.664;2022-12-29T15:09:10;10.40;99.90
9907;DHT22;4992;51.628;6.664;2022-12-29T15:14:33;10.40;99.90
9907;DHT22;4992;51.628;6.664;2022-12-29T15:16:59;10.40;99.90
9907;DHT22;4992;51.628;6.664;2022-12-29T15:19:26;10.40;99.90
9907;DHT22;4992;51.628;6.664;2022-12-29T15:21:53;10.40;99.90
9907;DHT22;4992;51.628;6.664;2022-12-29T15:24:19;10.40;99.90
9907;DHT22;4992;51.628;6.664;2022-12-29T15:26:49;10.40;99.90
9907;DHT22;4992;51.628;6.664;2022-12-29T15:29:40;10.40;99.90
9907;DHT22;4992;51.628;6.664;2022-12-29T15:32:19;10.40;99.90
9907;DHT22;4992;51.628;6.664;2022-12-29T15:34:47;10.40;99.90
9907;DHT22;4992;51.628;6.664;2022-12-29T15:37:33;10.40;99.90
9907;DHT22;4992;51.628;6.664;2022-12-29T15:40:00;10.30;99.90
9907;DHT22;4992;51.628;6.664;2022-12-29T15:45:12;10.30;99.90
9907;DHT22;4992;51.628;6.664;2022-12-29T15:47:42;10.40;99.90
9907;DHT22;4992;51.628;6.664;2022-12-29T15:52:39;10.40;99.90
9907;DHT22;4992;51.628;6.664;2022-12-29T15:55:06;10.40;99.90
9907;DHT22;4992;51.628;6.664;2022-12-29T15:57:42;10.40;99.90
9907;DHT22;4992;51.628;6.664;2022-12-29T16:00:40;10.40;99.90
9907;DHT22;4992;51.628;6.664;2022-12-29T16:03:12;10.30;99.90
9907;DHT22;4992;51.628;6.664;2022-12-29T16:05:39;10.30;99.90
9907;DHT22;4992;51.628;6.664;2022-12-29T16:08:34;10.30;99.90
9907;DHT22;4992;51.628;6.664;2022-12-29T16:11:05;10.30;99.90
9907;DHT22;4992;51.628;6.664;2022-12-29T16:13:38;10.20;99.90
9907;DHT22;4992;51.628;6.664;2022-12-29T16:16:14;10.10;99.90
9907;DHT22;4992;51.628;6.664;2022-12-29T16:18:41;10.10;99.90
9907;DHT22;4992;51.628;6.664;2022-12-29T16:21:18;10.10;99.90
9907;DHT22;4992;51.628;6.664;2022-12-29T16:23:48;9.90;99.90
9907;DHT22;4992;51.628;6.664;2022-12-29T16:26:19;9.70;99.90
9907;DHT22;4992;51.628;6.664;2022-12-29T16:28:49;9.60;99.90
9907;DHT22;4992;51.628;6.664;2022-12-29T16:31:24;9.40;99.90
9907;DHT22;4992;51.628;6.664;2022-12-29T16:33:51;9.20;99.90
9907;DHT22;4992;51.628;6.664;2022-12-29T16:36:29;9.00;99.90
9907;DHT22;4992;51.628;6.664;2022-12-29T16:39:36;8.80;99.90
9907;DHT22;4992;51.628;6.664;2022-12-29T16:48:20;8.60;99.90
9907;DHT22;4992;51.628;6.664;2022-12-29T16:50:47;8.50;99.90
9907;DHT22;4992;51.628;6.664;2022-12-29T16:53:29;8.50;99.90
9907;DHT22;4992;51.628;6.664;2022-12-29T16:55:58;8.50;99.90
9907;DHT22;4992;51.628;6.664;2022-12-29T16:58:28;8.40;99.90
9907;DHT22;4992;51.628;6.664;2022-12-29T17:00:57;8.40;99.90
9907;DHT22;4992;51.628;6.664;2022-12-29T17:03:31;8.30;99.90
9907;DHT22;4992;51.628;6.664;2022-12-29T17:05:57;8.30;99.90
9907;DHT22;4992;51.628;6.664;2022-12-29T17:08:22;8.30;99.90
9907;DHT22;4992;51.628;6.664;2022-12-29T17:10:54;8.30;99.90
9907;DHT22;4992;51.628;6.664;2022-12-29T17:13:39;8.20;99.90
9907;DHT22;4992;51.628;6.664;2022-12-29T17:16:10;8.20;99.90
9907;DHT22;4992;51.628;6.664;2022-12-29T17:18:36;8.20;99.90
9907;DHT22;4992;51.628;6.664;2022-12-29T17:21:02;8.10;99.90
9907;DHT22;4992;51.628;6.664;2022-12-29T17:23:29;8.10;99.90
9907;DHT22;4992;51.628;6.664;2022-12-29T17:25:56;8.10;99.90
9907;DHT22;4992;51.628;6.664;2022-12-29T17:28:27;8.00;99.90
9907;DHT22;4992;51.628;6.664;2022-12-29T17:30:58;8.00;99.90
9907;DHT22;4992;51.628;6.664;2022-12-29T17:33:25;7.90;99.90
9907;DHT22;4992;51.628;6.664;2022-12-29T17:35:50;7.80;99.90
9907;DHT22;4992;51.628;6.664;2022-12-29T17:38:27;7.80;99.90
9907;DHT22;4992;51.628;6.664;2022-12-29T17:40:53;7.70;99.90
9907;DHT22;4992;51.628;6.664;2022-12-29T17:43:19;7.70;99.90
9907;DHT22;4992;51.628;6.664;2022-12-29T17:45:49;7.80;99.90
9907;DHT22;4992;51.628;6.664;2022-12-29T17:48:17;7.80;99.90
9907;DHT22;4992;51.628;6.664;2022-12-29T17:50:44;7.80;99.90
9907;DHT22;4992;51.628;6.664;2022-12-29T17:53:12;7.90;99.90
9907;DHT22;4992;51.628;6.664;2022-12-29T17:55:38;7.90;99.90
9907;DHT22;4992;51.628;6.664;2022-12-29T17:58:24;7.80;99.90
9907;DHT22;4992;51.628;6.664;2022-12-29T18:00:55;7.80;99.90
9907;DHT22;4992;51.628;6.664;2022-12-29T18:03:31;7.80;99.90
9907;DHT22;4992;51.628;6.664;2022-12-29T18:05:57;7.80;99.90
9907;DHT22;4992;51.628;6.664;2022-12-29T18:08:22;7.80;99.90